Time;durP1;ratioP1;P1;durP2;ratioP2;P2;SDS_P1;SDS_P2;PMS_P1;PMS_P2;Temp;Humidity;BMP_temperature;BMP_pressure;BME280_temperature;BME280_humidity;BME280_pressure;Samples;Min_cycle;Max_cycle;Signal;HPM_P1;HPM_P2
2024/03/12 00:01:19;;;;;;;;;;;;;;;;;;2193291;67;1700;-24
2024/03/12 00:03:49;;;;;;;;;;;;;;;;;;2194935;67;1556;-24
2024/03/12 00:06:20;;;;;;;;;;;;;;;;;;2190864;67;1293;-24
2024/03/12 00:08:50;;;;;;;;;;;;;;;;;;2191025;67;2083;-24
2024/03/12 00:11:20;;;;;;;;;;;;;;;;;;2191780;67;1550;-24
2024/03/12 00:13:51;;;;;;;;;;;;;;;;;;2194102;59;1277;-24
2024/03/12 00:16:21;;;;;;;;;;;;;;;;;;2194773;67;1122;-24
2024/03/12 00:18:55;;;;;;;;;;;;;;;;;;2191052;67;1198;-23
2024/03/12 00:21:25;;;;;;;;;;;;;;;;;;2191755;59;1666;-23
2024/03/12 00:23:56;;;;;;;;;;;;;;;;;;2195277;67;1381;-23
2024/03/12 00:26:28;;;;;;;;;;;;;;;;;;2191436;67;1935;-24
2024/03/12 00:28:58;;;;;;;;;;;;;;;;;;2194428;67;1953;-23
2024/03/12 00:31:29;;;;;;;;;;;;;;;;;;2187551;67;1543;-23
2024/03/12 00:34:00;;;;;;;;;;;;;;;;;;2194686;59;1632;-23
2024/03/12 00:36:30;;;;;;;;;;;;;;;;;;2189980;67;1258;-23
2024/03/12 00:39:02;;;;;;;;;;;;;;;;;;2191994;59;1886;-23
2024/03/12 00:41:32;;;;;;;;;;;;;;;;;;2195404;67;1372;-23
2024/03/12 00:44:02;;;;;;;;;;;;;;;;;;2191097;67;1450;-24
2024/03/12 00:46:33;;;;;;;;;;;;;;;;;;2195136;59;1481;-23
2024/03/12 00:49:03;;;;;;;;;;;;;;;;;;2193949;59;1940;-23
2024/03/12 00:51:33;;;;;;;;;;;;;;;;;;2191945;67;1457;-23
2024/03/12 00:54:05;;;;;;;;;;;;;;;;;;2193950;67;1663;-23
2024/03/12 00:56:35;;;;;;;;;;;;;;;;;;2193167;60;1201;-24
2024/03/12 00:59:06;;;;;;;;;;;;;;;;;;2195166;67;1276;-23
2024/03/12 01:01:36;;;;;;;;;;;;;;;;;;2195342;67;1237;-23
2024/03/12 01:04:06;;;;;;;;;;;;;;;;;;2194794;67;1670;-25
2024/03/12 01:06:37;;;;;;;;;;;;;;;;;;2195502;67;1491;-25
2024/03/12 01:09:07;;;;;;;;;;;;;;;;;;2193687;67;1931;-25
2024/03/12 01:11:38;;;;;;;;;;;;;;;;;;2189446;67;1326;-24
2024/03/12 01:14:09;;;;;;;;;;;;;;;;;;2194185;59;1558;-23
2024/03/12 01:16:40;;;;;;;;;;;;;;;;;;2195353;67;1901;-24
2024/03/12 01:19:11;;;;;;;;;;;;;;;;;;2192478;67;1695;-25
2024/03/12 01:21:42;;;;;;;;;;;;;;;;;;2194598;67;3361;-25
2024/03/12 01:24:12;;;;;;;;;;;;;;;;;;2194205;59;1963;-24
2024/03/12 01:26:44;;;;;;;;;;;;;;;;;;2191588;67;2073;-24
2024/03/12 01:29:14;;;;;;;;;;;;;;;;;;2193826;67;2449;-23
2024/03/12 01:31:44;;;;;;;;;;;;;;;;;;2192040;67;1808;-24
2024/03/12 01:34:15;;;;;;;;;;;;;;;;;;2190555;59;1965;-23
2024/03/12 01:36:48;;;;;;;;;;;;;;;;;;2194787;59;1802;-23
2024/03/12 01:39:25;;;;;;;;;;;;;;;;;;2191109;59;2305;-24
2024/03/12 01:41:56;;;;;;;;;;;;;;;;;;2190726;67;2950;-23
2024/03/12 01:44:26;;;;;;;;;;;;;;;;;;2193667;59;2004;-23
2024/03/12 01:46:56;;;;;;;;;;;;;;;;;;2194537;59;1710;-23
2024/03/12 01:49:27;;;;;;;;;;;;;;;;;;2194526;59;2724;-23
2024/03/12 01:51:58;;;;;;;;;;;;;;;;;;2192542;67;1824;-23
2024/03/12 01:54:28;;;;;;;;;;;;;;;;;;2193915;59;1887;-24
2024/03/12 01:56:59;;;;;;;;;;;;;;;;;;2194380;67;1831;-23
2024/03/12 01:59:29;;;;;;;;;;;;;;;;;;2192007;60;1911;-23
2024/03/12 02:02:02;;;;;;;;;;;;;;;;;;2190671;67;1767;-23
2024/03/12 02:04:32;;;;;;;;;;;;;;;;;;2190650;59;2316;-23
2024/03/12 02:07:03;;;;;;;;;;;;;;;;;;2189649;67;1926;-23
2024/03/12 02:09:34;;;;;;;;;;;;;;;;;;2191146;59;1961;-24
2024/03/12 02:12:04;;;;;;;;;;;;;;;;;;2194397;67;1866;-23
2024/03/12 02:14:35;;;;;;;;;;;;;;;;;;2194347;59;1885;-23
2024/03/12 02:17:05;;;;;;;;;;;;;;;;;;2194000;67;2085;-23
2024/03/12 02:19:36;;;;;;;;;;;;;;;;;;2194213;67;2018;-24
2024/03/12 02:22:06;;;;;;;;;;;;;;;;;;2194525;67;2303;-23
2024/03/12 02:24:36;;;;;;;;;;;;;;;;;;2188557;67;2242;-23
2024/03/12 02:27:06;;;;;;;;;;;;;;;;;;2190902;67;1527;-23
2024/03/12 02:29:37;;;;;;;;;;;;;;;;;;2194349;67;2891;-23
2024/03/12 02:32:07;;;;;;;;;;;;;;;;;;2191625;59;1848;-23
2024/03/12 02:34:37;;;;;;;;;;;;;;;;;;2194343;59;2009;-23
2024/03/12 02:37:07;;;;;;;;;;;;;;;;;;2194763;59;2061;-24
2024/03/12 02:39:38;;;;;;;;;;;;;;;;;;2191933;59;1921;-23
2024/03/12 02:42:08;;;;;;;;;;;;;;;;;;2194458;59;1732;-23
2024/03/12 02:44:38;;;;;;;;;;;;;;;;;;2191033;59;1932;-23
2024/03/12 02:47:09;;;;;;;;;;;;;;;;;;2194410;59;1839;-23
2024/03/12 02:49:39;;;;;;;;;;;;;;;;;;2194405;59;2088;-23
2024/03/12 02:52:11;;;;;;;;;;;;;;;;;;2191222;66;2348;-23
2024/03/12 02:54:44;;;;;;;;;;;;;;;;;;2192874;59;2372;-23
2024/03/12 02:57:14;;;;;;;;;;;;;;;;;;2190199;67;2274;-23
2024/03/12 02:59:44;;;;;;;;;;;;;;;;;;2192331;59;1773;-23
2024/03/12 03:02:15;;;;;;;;;;;;;;;;;;2190300;67;2330;-23
2024/03/12 03:04:45;;;;;;;;;;;;;;;;;;2194456;67;1929;-23
2024/03/12 03:07:17;;;;;;;;;;;;;;;;;;2194494;59;2478;-23
2024/03/12 03:09:47;;;;;;;;;;;;;;;;;;2190787;59;1942;-23
2024/03/12 03:12:17;;;;;;;;;;;;;;;;;;2190345;67;2154;-23
2024/03/12 03:14:47;;;;;;;;;;;;;;;;;;2191438;59;1818;-23
2024/03/12 03:17:18;;;;;;;;;;;;;;;;;;2193302;67;2590;-23
2024/03/12 03:19:51;;;;;;;;;;;;;;;;;;2195097;59;1790;-23
2024/03/12 03:22:21;;;;;;;;;;;;;;;;;;2188978;67;2027;-23
2024/03/12 03:24:51;;;;;;;;;;;;;;;;;;2192227;67;1702;-23
2024/03/12 03:27:21;;;;;;;;;;;;;;;;;;2193299;59;1846;-23
2024/03/12 03:29:56;;;;;;;;;;;;;;;;;;2191655;67;2278;-23
2024/03/12 03:32:27;;;;;;;;;;;;;;;;;;2190099;67;1850;-23
2024/03/12 03:34:57;;;;;;;;;;;;;;;;;;2194571;67;1981;-23
2024/03/12 03:37:32;;;;;;;;;;;;;;;;;;2194111;59;1802;-23
2024/03/12 03:40:09;;;;;;;;;;;;;;;;;;2189875;59;2980;-23
2024/03/12 03:42:41;;;;;;;;;;;;;;;;;;2193120;59;1865;-23
2024/03/12 03:45:11;;;;;;;;;;;;;;;;;;2191158;59;1802;-23
2024/03/12 03:47:42;;;;;;;;;;;;;;;;;;2193624;59;2522;-23
2024/03/12 03:50:12;;;;;;;;;;;;;;;;;;2194441;59;1936;-23
2024/03/12 03:52:43;;;;;;;;;;;;;;;;;;2190604;59;1824;-23
2024/03/12 03:55:14;;;;;;;;;;;;;;;;;;2194358;67;1895;-23
2024/03/12 03:57:44;;;;;;;;;;;;;;;;;;2194019;67;2547;-23
2024/03/12 04:00:14;;;;;;;;;;;;;;;;;;2191801;67;2013;-23
2024/03/12 04:02:45;;;;;;;;;;;;;;;;;;2194077;60;1687;-23
2024/03/12 04:05:15;;;;;;;;;;;;;;;;;;2191451;59;2196;-23
2024/03/12 04:07:45;;;;;;;;;;;;;;;;;;2195174;59;2092;-23
2024/03/12 04:10:16;;;;;;;;;;;;;;;;;;2193962;59;2002;-23
2024/03/12 04:12:46;;;;;;;;;;;;;;;;;;2194593;59;2278;-23
2024/03/12 04:15:16;;;;;;;;;;;;;;;;;;2194836;59;1764;-23
2024/03/12 04:17:46;;;;;;;;;;;;;;;;;;2199338;54;4275;-80
2024/03/12 04:20:17;;;;;;;;;;;;;;;;;;2205354;59;2419;-80
2024/03/12 04:22:47;;;;;;;;;;;;;;;;;;2205431;59;1990;-80
2024/03/12 04:25:17;;;;;;;;;;;;;;;;;;2205017;59;2579;-81
2024/03/12 04:27:48;;;;;;;;;;;;;;;;;;2205207;59;2111;-82
2024/03/12 04:30:18;;;;;;;;;;;;;;;;;;2203490;67;2560;-82
2024/03/12 04:32:48;;;;;;;;;;;;;;;;;;2204056;59;2311;-82
2024/03/12 04:35:18;;;;;;;;;;;;;;;;;;2203558;59;2458;-82
2024/03/12 04:37:50;;;;;;;;;;;;;;;;;;2204538;59;2835;-82
2024/03/12 04:40:22;;;;;;;;;;;;;;;;;;2203926;59;2624;-82
2024/03/12 04:42:53;;;;;;;;;;;;;;;;;;2205721;59;1876;-82
2024/03/12 04:45:24;;;;;;;;;;;;;;;;;;2204643;59;2034;-82
2024/03/12 04:47:55;;;;;;;;;;;;;;;;;;2204345;67;2608;-82
2024/03/12 04:50:25;;;;;;;;;;;;;;;;;;2203667;59;2380;-82
2024/03/12 04:52:55;;;;;;;;;;;;;;;;;;2204579;67;2564;-82
2024/03/12 04:55:25;;;;;;;;;;;;;;;;;;2204891;67;2001;-82
2024/03/12 04:57:55;;;;;;;;;;;;;;;;;;2204822;67;2983;-82
2024/03/12 05:00:26;;;;;;;;;;;;;;;;;;2203871;59;2409;-82
2024/03/12 05:02:56;;;;;;;;;;;;;;;;;;2204614;67;2457;-82
2024/03/12 05:05:27;;;;;;;;;;;;;;;;;;2203082;59;2330;-82
2024/03/12 05:07:57;;;;;;;;;;;;;;;;;;2204265;67;2448;-82
2024/03/12 05:10:27;;;;;;;;;;;;;;;;;;2203765;67;1975;-83
2024/03/12 05:12:57;;;;;;;;;;;;;;;;;;2203957;67;2835;-82
2024/03/12 05:15:28;;;;;;;;;;;;;;;;;;2203715;59;2437;-82
2024/03/12 05:17:58;;;;;;;;;;;;;;;;;;2204804;59;2334;-82
2024/03/12 05:20:29;;;;;;;;;;;;;;;;;;2203639;67;2620;-82
2024/03/12 05:23:02;;;;;;;;;;;;;;;;;;2205088;67;2202;-82
2024/03/12 05:25:42;;;;;;;;;;;;;;;;;;2203374;67;2773;-82
2024/03/12 05:28:12;;;;;;;;;;;;;;;;;;2203926;59;2263;-82
2024/03/12 05:30:42;;;;;;;;;;;;;;;;;;2203343;59;2482;-82
2024/03/12 05:33:14;;;;;;;;;;;;;;;;;;2205126;59;2461;-82
2024/03/12 05:35:47;;;;;;;;;;;;;;;;;;2202666;59;2476;-82
2024/03/12 05:38:34;;;;;;;;;;;;;;;;;;2204268;67;2171;-82
2024/03/12 05:49:19;;;;;;;;;;;;;;;;;;2204845;59;1990;-81
2024/03/12 05:51:50;;;;;;;;;;;;;;;;;;2203480;59;2690;-80
2024/03/12 05:54:20;;;;;;;;;;;;;;;;;;2204466;59;2658;-80
2024/03/12 05:56:51;;;;;;;;;;;;;;;;;;2205223;59;2377;-80
2024/03/12 05:59:22;;;;;;;;;;;;;;;;;;2204007;59;2111;-80
2024/03/12 06:01:53;;;;;;;;;;;;;;;;;;2204548;59;2156;-80
2024/03/12 06:04:23;;;;;;;;;;;;;;;;;;2204038;59;2521;-80
2024/03/12 06:06:54;;;;;;;;;;;;;;;;;;2203850;59;2484;-80
2024/03/12 06:09:24;;;;;;;;;;;;;;;;;;2203941;67;2212;-80
2024/03/12 06:11:54;;;;;;;;;;;;;;;;;;2204424;59;2270;-80
2024/03/12 06:14:25;;;;;;;;;;;;;;;;;;2204358;59;2236;-80
2024/03/12 06:16:55;;;;;;;;;;;;;;;;;;2203830;59;2349;-80
2024/03/12 06:19:25;;;;;;;;;;;;;;;;;;2204064;59;2529;-80
2024/03/12 06:21:56;;;;;;;;;;;;;;;;;;2203853;67;2758;-81
2024/03/12 06:24:26;;;;;;;;;;;;;;;;;;2203470;59;2564;-80
2024/03/12 06:26:57;;;;;;;;;;;;;;;;;;2203781;59;2365;-80
2024/03/12 06:29:27;;;;;;;;;;;;;;;;;;2204067;67;2285;-80
2024/03/12 06:31:57;;;;;;;;;;;;;;;;;;2203509;59;2825;-80
2024/03/12 06:34:28;;;;;;;;;;;;;;;;;;2203862;67;2513;-80
2024/03/12 06:36:58;;;;;;;;;;;;;;;;;;2203957;59;2535;-81
2024/03/12 06:39:31;;;;;;;;;;;;;;;;;;2203860;59;2624;-80
2024/03/12 06:42:02;;;;;;;;;;;;;;;;;;2204581;67;2699;-81
2024/03/12 06:44:35;;;;;;;;;;;;;;;;;;2204202;59;2478;-80
2024/03/12 06:47:05;;;;;;;;;;;;;;;;;;2204988;59;2785;-81
2024/03/12 06:49:36;;;;;;;;;;;;;;;;;;2202903;59;2643;-80
2024/03/12 06:52:06;;;;;;;;;;;;;;;;;;2204741;67;3029;-81
2024/03/12 06:54:37;;;;;;;;;;;;;;;;;;2204661;61;2488;-80
2024/03/12 06:57:09;;;;;;;;;;;;;;;;;;2203393;67;2375;-80
2024/03/12 06:59:47;;;;;;;;;;;;;;;;;;2204329;59;2823;-81
2024/03/12 07:02:17;;;;;;;;;;;;;;;;;;2204303;67;2456;-80
2024/03/12 07:04:48;;;;;;;;;;;;;;;;;;2203166;59;2714;-80
2024/03/12 07:07:19;;;;;;;;;;;;;;;;;;2204090;60;2775;-81
2024/03/12 07:09:51;;;;;;;;;;;;;;;;;;2203418;59;2765;-80
2024/03/12 07:12:21;;;;;;;;;;;;;;;;;;2204688;59;2386;-81
2024/03/12 07:14:54;;;;;;;;;;;;;;;;;;2204204;59;2666;-80
2024/03/12 07:17:24;;;;;;;;;;;;;;;;;;2204001;59;2656;-81
2024/03/12 07:19:57;;;;;;;;;;;;;;;;;;2202559;59;2921;-80
2024/03/12 07:22:28;;;;;;;;;;;;;;;;;;2203760;59;2629;-80
2024/03/12 07:24:59;;;;;;;;;;;;;;;;;;2203707;67;2329;-80
2024/03/12 07:27:29;;;;;;;;;;;;;;;;;;2204222;59;2545;-80
2024/03/12 07:30:00;;;;;;;;;;;;;;;;;;2204069;59;2278;-80
2024/03/12 07:32:31;;;;;;;;;;;;;;;;;;2203412;67;2601;-80
2024/03/12 07:35:02;;;;;;;;;;;;;;;;;;2204549;67;2405;-80
2024/03/12 07:37:39;;;;;;;;;;;;;;;;;;2203579;59;1933;-80
2024/03/12 07:40:09;;;;;;;;;;;;;;;;;;2205132;59;2380;-81
2024/03/12 07:42:41;;;;;;;;;;;;;;;;;;2203385;67;2503;-80
2024/03/12 07:45:14;;;;;;;;;;;;;;;;;;2205044;59;2140;-80
2024/03/12 07:47:44;;;;;;;;;;;;;;;;;;2204039;59;2592;-80
2024/03/12 07:50:15;;;;;;;;;;;;;;;;;;2203903;59;2148;-80
2024/03/12 07:52:46;;;;;;;;;;;;;;;;;;2206344;59;2624;-80
2024/03/12 07:55:16;;;;;;;;;;;;;;;;;;2215171;59;2638;-80
2024/03/12 07:57:46;;;;;;;;;;;;;;;;;;2205376;67;2837;-80
2024/03/12 08:00:16;;;;;;;;;;;;;;;;;;2205000;59;2365;-80
2024/03/12 08:02:46;;;;;;;;;;;;;;;;;;2202710;59;2631;-80
2024/03/12 08:05:18;;;;;;;;;;;;;;;;;;2203893;67;2505;-80
2024/03/12 08:07:50;;;;;;;;;;;;;;;;;;2202908;59;2718;-80
2024/03/12 08:10:20;;;;;;;;;;;;;;;;;;2203353;59;2289;-80
2024/03/12 08:12:50;;;;;;;;;;;;;;;;;;2203268;67;2729;-80
2024/03/12 08:15:21;;;;;;;;;;;;;;;;;;2204029;59;2603;-80
2024/03/12 08:17:51;;;;;;;;;;;;;;;;;;2202983;59;2227;-80
2024/03/12 08:20:22;;;;;;;;;;;;;;;;;;2203874;59;2342;-81
2024/03/12 08:22:52;;;;;;;;;;;;;;;;;;2202315;59;2410;-81
2024/03/12 08:25:22;;;;;;;;;;;;;;;;;;2203839;59;2742;-81
2024/03/12 08:27:53;;;;;;;;;;;;;;;;;;2202243;59;2928;-81
2024/03/12 08:30:23;;;;;;;;;;;;;;;;;;2204221;59;2741;-81
2024/03/12 08:32:56;;;;;;;;;;;;;;;;;;2202033;59;2493;-80
2024/03/12 08:35:26;;;;;;;;;;;;;;;;;;2203781;67;2458;-80
2024/03/12 08:37:56;;;;;;;;;;;;;;;;;;2204551;59;2390;-81
2024/03/12 08:40:27;;;;;;;;;;;;;;;;;;2205540;59;2758;-81
2024/03/12 08:42:57;;;;;;;;;;;;;;;;;;2204082;59;3093;-81
2024/03/12 08:45:27;;;;;;;;;;;;;;;;;;2204968;59;2658;-81
2024/03/12 08:47:59;;;;;;;;;;;;;;;;;;2204622;59;3517;-81
2024/03/12 08:50:29;;;;;;;;;;;;;;;;;;2206145;59;2560;-81
2024/03/12 08:53:00;;;;;;;;;;;;;;;;;;2204189;59;2202;-81
2024/03/12 08:55:30;;;;;;;;;;;;;;;;;;2206207;59;2699;-80
2024/03/12 08:58:00;;;;;;;;;;;;;;;;;;2203686;59;2483;-81
2024/03/12 09:00:32;;;;;;;;;;;;;;;;;;2205369;67;1635;-81
2024/03/12 09:03:02;;;;;;;;;;;;;;;;;;2204762;62;2376;-81
2024/03/12 09:05:34;;;;;;;;;;;;;;;;;;2204671;59;2595;-81
2024/03/12 09:08:05;;;;;;;;;;;;;;;;;;2205092;59;2440;-81
2024/03/12 09:10:36;;;;;;;;;;;;;;;;;;2203685;67;3105;-81
2024/03/12 09:13:06;;;;;;;;;;;;;;;;;;2205426;59;2171;-81
2024/03/12 09:15:37;;;;;;;;;;;;;;;;;;2205016;59;2467;-81
2024/03/12 09:18:07;;;;;;;;;;;;;;;;;;2205746;59;2104;-81
2024/03/12 09:20:37;;;;;;;;;;;;;;;;;;2205938;59;2302;-81
2024/03/12 09:23:07;;;;;;;;;;;;;;;;;;2205754;67;2696;-81
2024/03/12 09:25:38;;;;;;;;;;;;;;;;;;2204050;67;2526;-79
2024/03/12 09:28:09;;;;;;;;;;;;;;;;;;2202265;59;3261;-78
2024/03/12 09:30:39;;;;;;;;;;;;;;;;;;2202982;60;2603;-78
2024/03/12 09:33:10;;;;;;;;;;;;;;;;;;2202565;59;2737;-78
2024/03/12 09:35:40;;;;;;;;;;;;;;;;;;2201935;59;2948;-78
2024/03/12 09:38:11;;;;;;;;;;;;;;;;;;2203204;59;1662;-79
2024/03/12 09:40:43;;;;;;;;;;;;;;;;;;2202566;59;2829;-79
2024/03/12 09:43:16;;;;;;;;;;;;;;;;;;2203121;59;2872;-79
2024/03/12 09:45:47;;;;;;;;;;;;;;;;;;2203801;59;2437;-78
2024/03/12 09:48:18;;;;;;;;;;;;;;;;;;2203129;59;2468;-78
2024/03/12 09:50:49;;;;;;;;;;;;;;;;;;2202797;67;2657;-79
2024/03/12 09:53:20;;;;;;;;;;;;;;;;;;2205915;67;3192;-79
2024/03/12 09:55:51;;;;;;;;;;;;;;;;;;2204971;67;2669;-80
2024/03/12 09:58:21;;;;;;;;;;;;;;;;;;2203869;59;2420;-80
2024/03/12 10:00:53;;;;;;;;;;;;;;;;;;2202290;59;2544;-79
2024/03/12 10:03:24;;;;;;;;;;;;;;;;;;2204289;59;2555;-79
2024/03/12 10:05:54;;;;;;;;;;;;;;;;;;2202126;59;2238;-78
2024/03/12 10:08:28;;;;;;;;;;;;;;;;;;2203416;59;2747;-78
2024/03/12 10:11:01;;;;;;;;;;;;;;;;;;2202352;59;2374;-78
2024/03/12 10:13:32;;;;;;;;;;;;;;;;;;2202650;59;2756;-78
2024/03/12 10:16:03;;;;;;;;;;;;;;;;;;2202656;59;2292;-78
2024/03/12 10:18:34;;;;;;;;;;;;;;;;;;2201497;59;2527;-78
2024/03/12 10:21:06;;;;;;;;;;;;;;;;;;2201613;59;2592;-78
2024/03/12 10:23:37;;;;;;;;;;;;;;;;;;2204036;59;2548;-79
2024/03/12 10:26:12;;;;;;;;;;;;;;;;;;2203381;59;3106;-78
2024/03/12 10:28:46;;;;;;;;;;;;;;;;;;2202078;59;2644;-78
2024/03/12 10:31:19;;;;;;;;;;;;;;;;;;2203209;59;2142;-78
2024/03/12 10:33:50;;;;;;;;;;;;;;;;;;2201845;59;2773;-78
2024/03/12 10:36:30;;;;;;;;;;;;;;;;;;2201914;67;2554;-78
2024/03/12 10:39:07;;;;;;;;;;;;;;;;;;2203108;59;3220;-78
2024/03/12 10:41:38;;;;;;;;;;;;;;;;;;2202264;59;2932;-78
2024/03/12 10:44:10;;;;;;;;;;;;;;;;;;2203055;59;2019;-79
2024/03/12 10:46:42;;;;;;;;;;;;;;;;;;2204353;59;2634;-79
2024/03/12 10:49:15;;;;;;;;;;;;;;;;;;2204687;67;1930;-79
2024/03/12 10:51:45;;;;;;;;;;;;;;;;;;2202808;67;2602;-78
2024/03/12 10:54:16;;;;;;;;;;;;;;;;;;2202907;59;2570;-79
2024/03/12 10:56:47;;;;;;;;;;;;;;;;;;2203756;59;2444;-79
2024/03/12 10:59:19;;;;;;;;;;;;;;;;;;2204932;59;2472;-79
2024/03/12 11:01:50;;;;;;;;;;;;;;;;;;2203513;67;2293;-79
2024/03/12 11:04:22;;;;;;;;;;;;;;;;;;2205434;67;2689;-79
2024/03/12 11:06:53;;;;;;;;;;;;;;;;;;2210242;59;2674;-79
2024/03/12 11:09:28;;;;;;;;;;;;;;;;;;2212367;67;2251;-79
2024/03/12 11:11:59;;;;;;;;;;;;;;;;;;2202726;59;2380;-78
2024/03/12 11:14:29;;;;;;;;;;;;;;;;;;2203813;59;2439;-78
2024/03/12 11:17:00;;;;;;;;;;;;;;;;;;2202680;59;3082;-79
2024/03/12 11:19:33;;;;;;;;;;;;;;;;;;2203248;67;2285;-79
2024/03/12 11:22:10;;;;;;;;;;;;;;;;;;2201187;67;3259;-78
2024/03/12 11:24:44;;;;;;;;;;;;;;;;;;2203485;59;2403;-79
2024/03/12 11:27:25;;;;;;;;;;;;;;;;;;2203575;59;2566;-78
2024/03/12 11:30:08;;;;;;;;;;;;;;;;;;2201063;59;2726;-79
2024/03/12 11:32:39;;;;;;;;;;;;;;;;;;2202535;67;2322;-79
2024/03/12 11:35:18;;;;;;;;;;;;;;;;;;2201775;59;2996;-78
2024/03/12 11:37:58;;;;;;;;;;;;;;;;;;2201640;67;2678;-78
2024/03/12 11:40:30;;;;;;;;;;;;;;;;;;2202341;59;2039;-78
2024/03/12 11:43:01;;;;;;;;;;;;;;;;;;2202087;59;1913;-78
2024/03/12 11:45:41;;;;;;;;;;;;;;;;;;2205229;59;3024;-78
2024/03/12 11:48:13;;;;;;;;;;;;;;;;;;2202050;59;2830;-79
2024/03/12 11:50:49;;;;;;;;;;;;;;;;;;2202984;67;1934;-78
2024/03/12 11:53:21;;;;;;;;;;;;;;;;;;2203005;67;2503;-78
2024/03/12 11:56:10;;;;;;;;;;;;;;;;;;2201630;67;2439;-78
2024/03/12 11:58:44;;;;;;;;;;;;;;;;;;2204613;67;1865;-78
2024/03/12 12:01:31;;;;;;;;;;;;;;;;;;2204420;67;2374;-78
2024/03/12 12:04:07;;;;;;;;;;;;;;;;;;2203269;67;2491;-78
2024/03/12 12:06:37;;;;;;;;;;;;;;;;;;2204263;59;3057;-78
2024/03/12 12:09:08;;;;;;;;;;;;;;;;;;2203727;59;2606;-78
2024/03/12 12:11:39;;;;;;;;;;;;;;;;;;2202955;59;1985;-78
2024/03/12 12:14:09;;;;;;;;;;;;;;;;;;2202299;59;2878;-78
2024/03/12 12:16:39;;;;;;;;;;;;;;;;;;2205190;59;1994;-78
2024/03/12 12:19:10;;;;;;;;;;;;;;;;;;2203604;59;2467;-78
2024/03/12 12:21:41;;;;;;;;;;;;;;;;;;2203675;67;2887;-78
2024/03/12 12:24:13;;;;;;;;;;;;;;;;;;2203995;67;2300;-78
2024/03/12 12:26:44;;;;;;;;;;;;;;;;;;2203616;59;2302;-78
2024/03/12 12:29:14;;;;;;;;;;;;;;;;;;2202487;59;3349;-78
2024/03/12 12:31:45;;;;;;;;;;;;;;;;;;2203463;59;2508;-78
2024/03/12 12:34:16;;;;;;;;;;;;;;;;;;2202102;59;2547;-78
2024/03/12 12:36:46;;;;;;;;;;;;;;;;;;2203698;59;2600;-80
2024/03/12 12:39:17;;;;;;;;;;;;;;;;;;2202453;59;3322;-78
2024/03/12 12:41:48;;;;;;;;;;;;;;;;;;2203710;59;2533;-78
2024/03/12 12:44:21;;;;;;;;;;;;;;;;;;2203610;59;2359;-78
2024/03/12 12:46:57;;;;;;;;;;;;;;;;;;2202374;59;2657;-78
2024/03/12 12:49:27;;;;;;;;;;;;;;;;;;2204506;59;2432;-78
2024/03/12 12:52:00;;;;;;;;;;;;;;;;;;2201890;59;2838;-78
2024/03/12 12:54:32;;;;;;;;;;;;;;;;;;2203100;59;2932;-78
2024/03/12 12:57:02;;;;;;;;;;;;;;;;;;2202847;59;2437;-78
2024/03/12 12:59:34;;;;;;;;;;;;;;;;;;2204801;59;1784;-79
2024/03/12 13:02:20;;;;;;;;;;;;;;;;;;2204383;59;2404;-79
2024/03/12 13:04:56;;;;;;;;;;;;;;;;;;2204399;67;2435;-79
2024/03/12 13:07:28;;;;;;;;;;;;;;;;;;2204793;59;1766;-79
2024/03/12 13:10:14;;;;;;;;;;;;;;;;;;2203674;59;1927;-78
2024/03/12 13:12:45;;;;;;;;;;;;;;;;;;2204603;67;2861;-79
2024/03/12 13:15:25;;;;;;;;;;;;;;;;;;2204930;59;2731;-79
2024/03/12 13:17:56;;;;;;;;;;;;;;;;;;2205852;59;2201;-79
2024/03/12 13:20:26;;;;;;;;;;;;;;;;;;2205301;59;1917;-79
2024/03/12 13:22:57;;;;;;;;;;;;;;;;;;2203560;59;2650;-79
2024/03/12 13:25:27;;;;;;;;;;;;;;;;;;2205060;59;1452;-79
2024/03/12 13:27:58;;;;;;;;;;;;;;;;;;2202774;67;2576;-78
2024/03/12 13:30:29;;;;;;;;;;;;;;;;;;2202528;67;2138;-78
2024/03/12 13:32:59;;;;;;;;;;;;;;;;;;2202823;67;2337;-78
2024/03/12 13:35:31;;;;;;;;;;;;;;;;;;2203335;59;2209;-78
2024/03/12 13:38:01;;;;;;;;;;;;;;;;;;2202868;59;2481;-79
2024/03/12 13:40:31;;;;;;;;;;;;;;;;;;2203230;59;1893;-79
2024/03/12 13:43:03;;;;;;;;;;;;;;;;;;2201067;67;2769;-79
2024/03/12 13:45:33;;;;;;;;;;;;;;;;;;2202554;59;2425;-78
2024/03/12 13:48:06;;;;;;;;;;;;;;;;;;2200422;59;2306;-78
2024/03/12 13:50:43;;;;;;;;;;;;;;;;;;2201923;67;1990;-78
2024/03/12 13:53:13;;;;;;;;;;;;;;;;;;2200879;67;2599;-77
2024/03/12 13:55:43;;;;;;;;;;;;;;;;;;2202525;59;2423;-78
2024/03/12 13:58:13;;;;;;;;;;;;;;;;;;2201056;59;2634;-77
2024/03/12 14:00:44;;;;;;;;;;;;;;;;;;2201088;59;2395;-78
2024/03/12 14:03:14;;;;;;;;;;;;;;;;;;2200632;67;2326;-78
2024/03/12 14:05:46;;;;;;;;;;;;;;;;;;2202931;67;2618;-79
2024/03/12 14:08:16;;;;;;;;;;;;;;;;;;2202988;67;2603;-78
2024/03/12 14:10:47;;;;;;;;;;;;;;;;;;2205655;67;2584;-78
2024/03/12 14:13:21;;;;;;;;;;;;;;;;;;2201047;59;2359;-77
2024/03/12 14:15:52;;;;;;;;;;;;;;;;;;2202429;59;2454;-78
2024/03/12 14:18:23;;;;;;;;;;;;;;;;;;2201561;59;2744;-78
2024/03/12 14:20:55;;;;;;;;;;;;;;;;;;2202943;67;1760;-78
2024/03/12 14:23:26;;;;;;;;;;;;;;;;;;2201770;59;3077;-78
2024/03/12 14:25:56;;;;;;;;;;;;;;;;;;2201975;59;2474;-78
2024/03/12 14:28:26;;;;;;;;;;;;;;;;;;2202226;59;2336;-78
2024/03/12 14:30:58;;;;;;;;;;;;;;;;;;2203485;67;2804;-78
2024/03/12 14:33:29;;;;;;;;;;;;;;;;;;2201304;59;1731;-78
2024/03/12 14:35:59;;;;;;;;;;;;;;;;;;2206648;59;2254;-79
2024/03/12 14:38:29;;;;;;;;;;;;;;;;;;2204973;59;2520;-78
2024/03/12 14:41:00;;;;;;;;;;;;;;;;;;2201430;59;2933;-78
2024/03/12 14:43:30;;;;;;;;;;;;;;;;;;2202187;67;2385;-78
2024/03/12 14:46:00;;;;;;;;;;;;;;;;;;2202054;59;2585;-78
2024/03/12 14:48:31;;;;;;;;;;;;;;;;;;2203762;59;2304;-79
2024/03/12 14:51:01;;;;;;;;;;;;;;;;;;2203261;59;2995;-79
2024/03/12 14:53:31;;;;;;;;;;;;;;;;;;2204001;59;1750;-79
2024/03/12 14:56:01;;;;;;;;;;;;;;;;;;2202592;59;2639;-79
2024/03/12 14:58:32;;;;;;;;;;;;;;;;;;2203624;67;2282;-79
2024/03/12 15:01:04;;;;;;;;;;;;;;;;;;2202537;59;2785;-79
2024/03/12 15:03:36;;;;;;;;;;;;;;;;;;2203822;67;2554;-79
2024/03/12 15:06:06;;;;;;;;;;;;;;;;;;2202390;59;2256;-79
2024/03/12 15:08:37;;;;;;;;;;;;;;;;;;2203993;59;2408;-78
2024/03/12 15:11:07;;;;;;;;;;;;;;;;;;2202015;67;2795;-79
2024/03/12 15:13:38;;;;;;;;;;;;;;;;;;2203175;59;2313;-79
2024/03/12 15:16:08;;;;;;;;;;;;;;;;;;2202791;59;2507;-78
2024/03/12 15:18:39;;;;;;;;;;;;;;;;;;2202478;59;2501;-78
2024/03/12 15:21:10;;;;;;;;;;;;;;;;;;2202140;67;2572;-78
2024/03/12 15:23:41;;;;;;;;;;;;;;;;;;2203274;59;2544;-78
2024/03/12 15:26:11;;;;;;;;;;;;;;;;;;2201972;59;2431;-79
2024/03/12 15:28:41;;;;;;;;;;;;;;;;;;2203725;67;2088;-78
2024/03/12 15:31:11;;;;;;;;;;;;;;;;;;2202377;59;2530;-78
2024/03/12 15:33:43;;;;;;;;;;;;;;;;;;2203676;67;3254;-79
2024/03/12 15:36:14;;;;;;;;;;;;;;;;;;2202124;59;3320;-78
2024/03/12 15:38:44;;;;;;;;;;;;;;;;;;2203571;59;2663;-78
2024/03/12 15:41:14;;;;;;;;;;;;;;;;;;2202133;59;2370;-78
2024/03/12 15:43:45;;;;;;;;;;;;;;;;;;2203056;67;2524;-78
2024/03/12 15:46:19;;;;;;;;;;;;;;;;;;2202010;59;2174;-78
2024/03/12 15:48:49;;;;;;;;;;;;;;;;;;2203564;59;2731;-78
2024/03/12 15:51:19;;;;;;;;;;;;;;;;;;2201946;67;2597;-79
2024/03/12 15:53:49;;;;;;;;;;;;;;;;;;2203364;67;2526;-78
2024/03/12 15:56:21;;;;;;;;;;;;;;;;;;2203383;59;2414;-78
2024/03/12 15:58:51;;;;;;;;;;;;;;;;;;2203467;67;2564;-78
2024/03/12 16:01:22;;;;;;;;;;;;;;;;;;2202528;59;2763;-78
2024/03/12 16:03:53;;;;;;;;;;;;;;;;;;2202346;67;2453;-78
2024/03/12 16:06:24;;;;;;;;;;;;;;;;;;2202377;67;2661;-78
2024/03/12 16:08:54;;;;;;;;;;;;;;;;;;2203245;60;2326;-78
2024/03/12 16:11:26;;;;;;;;;;;;;;;;;;2203075;67;2325;-78
2024/03/12 16:13:57;;;;;;;;;;;;;;;;;;2203557;59;2460;-78
2024/03/12 16:16:27;;;;;;;;;;;;;;;;;;2200769;59;2724;-78
2024/03/12 16:18:58;;;;;;;;;;;;;;;;;;2203072;59;2500;-78
2024/03/12 16:21:29;;;;;;;;;;;;;;;;;;2201784;67;2973;-78
2024/03/12 16:23:59;;;;;;;;;;;;;;;;;;2203116;67;2412;-78
2024/03/12 16:26:29;;;;;;;;;;;;;;;;;;2200931;59;2625;-78
2024/03/12 16:28:59;;;;;;;;;;;;;;;;;;2206437;67;2337;-78
2024/03/12 16:31:30;;;;;;;;;;;;;;;;;;2201480;67;2691;-78
2024/03/12 16:34:00;;;;;;;;;;;;;;;;;;2202571;59;2243;-78
2024/03/12 16:36:30;;;;;;;;;;;;;;;;;;2201457;59;2500;-78
2024/03/12 16:39:04;;;;;;;;;;;;;;;;;;2202638;59;2759;-78
2024/03/12 16:41:34;;;;;;;;;;;;;;;;;;2202269;59;2407;-78
2024/03/12 16:44:05;;;;;;;;;;;;;;;;;;2202813;59;2751;-78
2024/03/12 16:46:35;;;;;;;;;;;;;;;;;;2200894;59;2659;-78
2024/03/12 16:49:06;;;;;;;;;;;;;;;;;;2201724;59;2657;-78
2024/03/12 16:51:36;;;;;;;;;;;;;;;;;;2199093;59;2669;-78
2024/03/12 16:54:07;;;;;;;;;;;;;;;;;;2200806;59;2724;-78
2024/03/12 16:56:37;;;;;;;;;;;;;;;;;;2198879;67;2857;-78
2024/03/12 16:59:08;;;;;;;;;;;;;;;;;;2199800;59;2297;-78
2024/03/12 17:01:39;;;;;;;;;;;;;;;;;;2201671;67;2269;-78
2024/03/12 17:04:10;;;;;;;;;;;;;;;;;;2200020;59;2376;-78
2024/03/12 17:06:43;;;;;;;;;;;;;;;;;;2200842;59;3058;-79
2024/03/12 17:09:14;;;;;;;;;;;;;;;;;;2198685;67;2763;-78
2024/03/12 17:11:44;;;;;;;;;;;;;;;;;;2199627;59;2722;-78
2024/03/12 17:14:15;;;;;;;;;;;;;;;;;;2199132;59;2357;-78
2024/03/12 17:16:45;;;;;;;;;;;;;;;;;;2200495;59;3045;-78
2024/03/12 17:19:18;;;;;;;;;;;;;;;;;;2199343;67;2556;-79
2024/03/12 17:21:48;;;;;;;;;;;;;;;;;;2200477;67;2678;-79
2024/03/12 17:24:20;;;;;;;;;;;;;;;;;;2200128;59;2819;-80
2024/03/12 17:26:50;;;;;;;;;;;;;;;;;;2200858;59;2789;-78
2024/03/12 17:29:21;;;;;;;;;;;;;;;;;;2198712;67;2424;-78
2024/03/12 17:31:53;;;;;;;;;;;;;;;;;;2200095;59;2226;-78
2024/03/12 17:34:24;;;;;;;;;;;;;;;;;;2199777;59;2649;-78
2024/03/12 17:36:55;;;;;;;;;;;;;;;;;;2200112;67;3092;-78
2024/03/12 17:39:28;;;;;;;;;;;;;;;;;;2198831;59;2554;-78